createdAt,value
2023-04-02T00:00:22.511Z,24.08
2023-04-02T00:01:22.479Z,24.07
2023-04-02T00:02:22.634Z,24.05
2023-04-02T00:03:22.650Z,24.04
2023-04-02T00:04:22.617Z,24.04
2023-04-02T00:05:22.569Z,24.04
2023-04-02T00:06:22.594Z,24.05
2023-04-02T00:07:22.623Z,24.04
2023-04-02T00:08:22.706Z,24.05
2023-04-02T00:09:22.655Z,24.04
2023-04-02T00:10:22.687Z,24.04
2023-04-02T00:11:22.706Z,24.05
2023-04-02T00:12:22.722Z,24.04
2023-04-02T00:13:22.761Z,24.03
2023-04-02T00:14:22.783Z,24.07
2023-04-02T00:15:22.792Z,24.04
2023-04-02T00:16:22.858Z,24.04
2023-04-02T00:17:22.866Z,24.05
2023-04-02T00:18:22.930Z,24.05
2023-04-02T00:19:22.886Z,24.03
2023-04-02T00:20:22.913Z,24.05
2023-04-02T00:21:22.944Z,24.04
2023-04-02T00:22:22.953Z,24.03
2023-04-02T00:23:22.994Z,24.04
2023-04-02T00:24:22.997Z,24.04
2023-04-02T00:25:23.024Z,24.03
2023-04-02T00:26:23.112Z,24.03
2023-04-02T00:27:23.074Z,24.04
2023-04-02T00:28:23.093Z,24.03
2023-04-02T00:29:23.120Z,24.03
2023-04-02T00:30:23.140Z,24.01
2023-04-02T00:31:23.391Z,24.01
2023-04-02T00:32:23.196Z,24.01
2023-04-02T00:33:23.199Z,24.01
2023-04-02T00:34:23.228Z,24.03
2023-04-02T00:35:23.242Z,24.01
2023-04-02T00:36:23.292Z,24.03
2023-04-02T00:37:23.303Z,24.03
2023-04-02T00:38:23.308Z,24.04
2023-04-02T00:39:23.353Z,24.01
2023-04-02T00:40:23.352Z,24.01
2023-04-02T00:41:23.376Z,24.01
2023-04-02T00:42:23.400Z,24.03
2023-04-02T00:43:23.417Z,24.03
2023-04-02T00:44:23.447Z,24.00
2023-04-02T00:45:23.525Z,24.03
2023-04-02T00:46:23.509Z,24.03
2023-04-02T00:47:23.581Z,24.01
2023-04-02T00:48:23.535Z,24.03
2023-04-02T00:49:23.560Z,24.03
2023-04-02T00:50:23.589Z,24.01
2023-04-02T00:51:23.610Z,24.00
2023-04-02T00:52:23.635Z,24.00
2023-04-02T00:53:23.645Z,24.00
2023-04-02T00:54:23.673Z,24.01
2023-04-02T00:55:23.744Z,24.04
2023-04-02T00:56:23.728Z,24.01
2023-04-02T00:57:23.790Z,24.00
2023-04-02T00:58:23.755Z,24.00
2023-04-02T00:59:23.788Z,24.00
2023-04-02T01:00:23.818Z,24.01
2023-04-02T01:01:23.893Z,24.01
2023-04-02T01:02:23.929Z,24.03
2023-04-02T01:03:23.966Z,24.01
2023-04-02T01:04:23.887Z,23.98
2023-04-02T01:05:24.199Z,24.01
2023-04-02T01:06:23.926Z,24.01
2023-04-02T01:07:23.951Z,24.00
2023-04-02T01:08:23.991Z,24.00
2023-04-02T01:09:24.670Z,24.00
2023-04-02T01:10:24.026Z,23.98
2023-04-02T01:11:24.032Z,24.00
2023-04-02T01:12:24.056Z,23.97
2023-04-02T01:13:24.096Z,24.01
2023-04-02T01:14:24.158Z,24.01
2023-04-02T01:15:24.122Z,23.98
2023-04-02T01:16:24.190Z,23.97
2023-04-02T01:17:24.224Z,23.98
2023-04-02T01:18:24.198Z,23.98
2023-04-02T01:19:24.219Z,23.98
2023-04-02T01:20:24.243Z,23.98
2023-04-02T01:21:24.273Z,24.00
2023-04-02T01:22:24.295Z,23.98
2023-04-02T01:23:24.334Z,23.98
2023-04-02T01:24:24.344Z,23.98
2023-04-02T01:25:24.367Z,23.97
2023-04-02T01:26:24.399Z,23.98
2023-04-02T01:27:24.464Z,23.98
2023-04-02T01:28:24.454Z,23.97
2023-04-02T01:29:24.563Z,23.98
2023-04-02T01:30:24.570Z,23.98
2023-04-02T01:31:24.603Z,23.98
2023-04-02T01:32:24.579Z,23.98
2023-04-02T01:33:24.577Z,23.97
2023-04-02T01:34:26.434Z,23.97
2023-04-02T01:35:24.632Z,23.98
2023-04-02T01:36:24.654Z,23.97
2023-04-02T01:37:24.686Z,23.96
2023-04-02T01:38:24.783Z,23.96
2023-04-02T01:39:24.732Z,23.97
2023-04-02T01:40:24.757Z,23.97
2023-04-02T01:41:24.888Z,23.96
2023-04-02T01:42:24.822Z,23.97
2023-04-02T01:43:24.853Z,23.96
2023-04-02T01:44:24.910Z,23.96
2023-04-02T01:45:24.938Z,23.94
2023-04-02T01:46:24.978Z,23.98
2023-04-02T01:47:24.996Z,23.97
2023-04-02T01:48:25.028Z,23.96
2023-04-02T01:49:25.017Z,23.96
2023-04-02T01:50:25.038Z,23.94
2023-04-02T01:51:25.053Z,23.96
2023-04-02T01:52:25.077Z,23.94
2023-04-02T01:53:25.104Z,23.94
2023-04-02T01:54:25.127Z,23.96
2023-04-02T01:55:25.154Z,23.94
2023-04-02T01:56:25.179Z,23.93
2023-04-02T01:57:25.221Z,23.96
2023-04-02T01:58:25.258Z,23.96
2023-04-02T01:59:25.268Z,23.93
2023-04-02T02:00:25.688Z,23.93
2023-04-02T02:01:25.331Z,23.94
2023-04-02T02:02:25.433Z,23.94
2023-04-02T02:03:25.367Z,23.94
2023-04-02T02:04:25.402Z,23.94
2023-04-02T02:05:25.427Z,23.91
2023-04-02T02:06:25.518Z,23.94
2023-04-02T02:07:25.486Z,23.94
2023-04-02T02:08:25.594Z,23.93
2023-04-02T02:09:25.589Z,23.90
2023-04-02T02:10:25.551Z,23.91
2023-04-02T02:11:25.659Z,23.90
2023-04-02T02:12:25.641Z,23.94
2023-04-02T02:13:25.665Z,23.93
2023-04-02T02:14:25.692Z,23.94
2023-04-02T02:15:25.787Z,23.91
2023-04-02T02:16:25.799Z,23.91
2023-04-02T02:17:25.792Z,23.91
2023-04-02T02:18:25.797Z,23.91
2023-04-02T02:19:25.874Z,23.90
2023-04-02T02:20:25.924Z,23.91
2023-04-02T02:21:25.850Z,23.91
2023-04-02T02:22:25.884Z,23.91
2023-04-02T02:23:25.918Z,23.91
2023-04-02T02:24:25.943Z,23.91
2023-04-02T02:25:25.976Z,23.90
2023-04-02T02:26:26.005Z,23.91
2023-04-02T02:27:26.053Z,23.91
2023-04-02T02:28:26.100Z,23.91
2023-04-02T02:29:26.096Z,23.88
2023-04-02T02:30:26.119Z,23.90
2023-04-02T02:31:26.153Z,23.91
2023-04-02T02:32:26.197Z,23.90
2023-04-02T02:33:26.225Z,23.88
2023-04-02T02:34:26.232Z,23.90
2023-04-02T02:35:26.330Z,23.87
2023-04-02T02:36:26.336Z,23.91
2023-04-02T02:37:26.316Z,23.88
2023-04-02T02:38:26.353Z,23.90
2023-04-02T02:39:26.393Z,23.91
2023-04-02T02:40:26.425Z,23.88
2023-04-02T02:41:27.199Z,23.88
2023-04-02T02:42:26.544Z,23.88
2023-04-02T02:43:26.519Z,23.88
2023-04-02T02:44:26.558Z,23.85
2023-04-02T02:45:26.587Z,23.87
2023-04-02T02:46:26.649Z,23.87
2023-04-02T02:47:26.733Z,23.88
2023-04-02T02:48:26.674Z,23.87
2023-04-02T02:49:26.730Z,23.87
2023-04-02T02:50:26.747Z,23.88
2023-04-02T02:51:26.780Z,23.88
2023-04-02T02:52:26.800Z,23.87
2023-04-02T02:53:26.840Z,23.87
2023-04-02T02:54:26.868Z,23.87
2023-04-02T02:55:26.898Z,23.85
2023-04-02T02:56:26.936Z,23.85
2023-04-02T02:57:27.012Z,23.88
2023-04-02T02:58:27.052Z,23.87
2023-04-02T02:59:27.026Z,23.87
2023-04-02T03:00:27.041Z,23.87
2023-04-02T03:01:27.737Z,23.88
2023-04-02T03:02:27.200Z,23.88
2023-04-02T03:03:27.245Z,23.88
2023-04-02T03:04:27.189Z,23.84
2023-04-02T03:05:27.206Z,23.87
2023-04-02T03:06:27.225Z,23.85
2023-04-02T03:07:27.262Z,23.87
2023-04-02T03:08:27.297Z,23.85
2023-04-02T03:09:27.393Z,23.87
2023-04-02T03:10:27.378Z,23.88
2023-04-02T03:11:27.482Z,23.87
2023-04-02T03:12:27.457Z,23.88
2023-04-02T03:13:27.491Z,23.84
2023-04-02T03:14:27.518Z,23.85
2023-04-02T03:15:27.601Z,23.88
2023-04-02T03:16:27.569Z,23.87
2023-04-02T03:17:27.630Z,23.85
2023-04-02T03:18:27.640Z,23.85
2023-04-02T03:19:27.667Z,23.87
2023-04-02T03:20:27.704Z,23.85
2023-04-02T03:21:27.739Z,23.85
2023-04-02T03:22:27.783Z,23.88
2023-04-02T03:23:27.827Z,23.84
2023-04-02T03:24:27.843Z,23.88
2023-04-02T03:25:27.882Z,23.85
2023-04-02T03:26:27.920Z,23.87
2023-04-02T03:27:27.971Z,23.84
2023-04-02T03:28:28.003Z,23.87
2023-04-02T03:29:28.093Z,23.85
2023-04-02T03:30:28.067Z,23.84
2023-04-02T03:31:28.160Z,23.87
2023-04-02T03:32:28.204Z,23.84
2023-04-02T03:33:28.151Z,23.84
2023-04-02T03:34:28.184Z,23.84
2023-04-02T03:35:28.217Z,23.87
2023-04-02T03:36:28.264Z,23.85
2023-04-02T03:37:28.277Z,23.85
2023-04-02T03:38:28.309Z,23.85
2023-04-02T03:39:28.327Z,23.84
2023-04-02T03:40:28.354Z,23.85
2023-04-02T03:41:28.389Z,23.84
2023-04-02T03:42:28.421Z,23.84
2023-04-02T03:43:28.505Z,23.85
2023-04-02T03:44:28.478Z,23.85
2023-04-02T03:45:28.514Z,23.85
2023-04-02T03:46:28.648Z,23.87
2023-04-02T03:47:28.592Z,23.84
2023-04-02T03:48:28.613Z,23.84
2023-04-02T03:49:28.653Z,23.85
2023-04-02T03:50:28.680Z,23.85
2023-04-02T03:51:28.718Z,23.84
2023-04-02T03:52:28.751Z,23.87
2023-04-02T03:53:28.799Z,23.85
2023-04-02T03:54:28.824Z,23.84
2023-04-02T03:55:28.860Z,23.84
2023-04-02T03:56:28.902Z,23.84
2023-04-02T03:57:28.964Z,23.85
2023-04-02T03:58:28.962Z,23.83
2023-04-02T03:59:28.986Z,23.87
2023-04-02T04:00:29.098Z,23.83
2023-04-02T04:01:29.059Z,23.84
2023-04-02T04:02:29.293Z,23.84
2023-04-02T04:03:29.122Z,23.84
2023-04-02T04:04:29.278Z,23.85
2023-04-02T04:05:29.269Z,23.83
2023-04-02T04:06:29.221Z,23.83
2023-04-02T04:07:29.246Z,23.83
2023-04-02T04:08:29.278Z,23.83
2023-04-02T04:09:29.311Z,23.81
2023-04-02T04:10:29.347Z,23.84
2023-04-02T04:11:29.387Z,23.84
2023-04-02T04:12:29.407Z,23.83
2023-04-02T04:13:29.448Z,23.83
2023-04-02T04:14:29.487Z,23.83
2023-04-02T04:15:30.230Z,23.81
2023-04-02T04:16:29.552Z,23.83
2023-04-02T04:17:29.620Z,23.81
2023-04-02T04:18:29.617Z,23.81
2023-04-02T04:19:29.647Z,23.81
2023-04-02T04:20:29.702Z,23.83
2023-04-02T04:21:29.717Z,23.81
2023-04-02T04:22:29.783Z,23.81
2023-04-02T04:23:29.811Z,23.80
2023-04-02T04:24:29.847Z,23.81
2023-04-02T04:25:30.035Z,23.80
2023-04-02T04:26:29.923Z,23.81
2023-04-02T04:27:29.971Z,23.80
2023-04-02T04:28:30.001Z,23.81
2023-04-02T04:29:30.044Z,23.80
2023-04-02T04:30:30.074Z,23.77
2023-04-02T04:31:30.133Z,23.80
2023-04-02T04:32:30.186Z,23.80
2023-04-02T04:33:30.180Z,23.80
2023-04-02T04:34:30.250Z,23.79
2023-04-02T04:35:30.314Z,23.77
2023-04-02T04:36:30.309Z,23.80
2023-04-02T04:37:30.346Z,23.80
2023-04-02T04:38:30.388Z,23.81
2023-04-02T04:39:30.436Z,23.80
2023-04-02T04:40:30.494Z,23.81
2023-04-02T04:41:30.511Z,23.80
2023-04-02T04:42:30.551Z,23.79
2023-04-02T04:43:30.589Z,23.79
2023-04-02T04:44:30.643Z,23.80
2023-04-02T04:45:30.677Z,23.79
2023-04-02T04:46:30.717Z,23.79
2023-04-02T04:47:30.792Z,23.80
2023-04-02T04:48:30.782Z,23.80
2023-04-02T04:49:30.826Z,23.77
2023-04-02T04:50:30.881Z,23.80
2023-04-02T04:51:30.899Z,23.79
2023-04-02T04:52:30.946Z,23.79
2023-04-02T04:53:30.985Z,23.79
2023-04-02T04:54:31.005Z,23.80
2023-04-02T04:55:31.134Z,23.76
2023-04-02T04:56:31.100Z,23.79
2023-04-02T04:57:31.215Z,23.80
2023-04-02T04:58:31.158Z,23.79
2023-04-02T04:59:31.207Z,23.79
2023-04-02T05:00:31.257Z,23.79
2023-04-02T05:01:31.447Z,23.76
2023-04-02T05:02:31.369Z,23.81
2023-04-02T05:03:31.370Z,23.77
2023-04-02T05:04:31.470Z,23.77
2023-04-02T05:05:31.502Z,23.80
2023-04-02T05:06:31.501Z,23.79
2023-04-02T05:07:31.569Z,23.79
2023-04-02T05:08:31.642Z,23.76
2023-04-02T05:09:31.646Z,23.79
2023-04-02T05:10:31.656Z,23.79
2023-04-02T05:11:31.712Z,23.77
2023-04-02T05:12:31.741Z,23.77
2023-04-02T05:13:31.789Z,23.79
2023-04-02T05:14:31.841Z,23.79
2023-04-02T05:15:31.961Z,23.79
2023-04-02T05:16:32.044Z,23.76
2023-04-02T05:17:32.005Z,23.77
2023-04-02T05:18:32.026Z,23.77
2023-04-02T05:19:32.071Z,23.76
2023-04-02T05:20:32.116Z,23.79
2023-04-02T05:21:32.163Z,23.77
2023-04-02T05:22:32.203Z,23.77
2023-04-02T05:23:32.254Z,23.76
2023-04-02T05:24:32.292Z,23.77
2023-04-02T05:25:32.344Z,23.77
2023-04-02T05:26:32.379Z,23.77
2023-04-02T05:27:32.421Z,23.74
2023-04-02T05:28:32.463Z,23.77
2023-04-02T05:29:32.529Z,23.76
2023-04-02T05:30:32.556Z,23.77
2023-04-02T05:31:32.667Z,23.76
2023-04-02T05:32:32.644Z,23.77
2023-04-02T05:33:32.676Z,23.77
2023-04-02T05:34:32.725Z,23.77
2023-04-02T05:35:32.801Z,23.79
2023-04-02T05:36:32.808Z,23.77
2023-04-02T05:37:32.862Z,23.79
2023-04-02T05:38:32.894Z,23.76
2023-04-02T05:39:32.951Z,23.76
2023-04-02T05:40:32.997Z,23.76
2023-04-02T05:41:33.027Z,23.76
2023-04-02T05:42:33.138Z,23.77
2023-04-02T05:43:33.104Z,23.77
2023-04-02T05:44:33.146Z,23.79
2023-04-02T05:45:34.006Z,23.79
2023-04-02T05:46:33.267Z,23.77
2023-04-02T05:47:33.341Z,23.77
2023-04-02T05:48:33.335Z,23.79
2023-04-02T05:49:33.374Z,23.79
2023-04-02T05:50:33.419Z,23.77
2023-04-02T05:51:33.507Z,23.77
2023-04-02T05:52:33.489Z,23.77
2023-04-02T05:53:33.534Z,23.79
2023-04-02T05:54:33.578Z,23.77
2023-04-02T05:55:33.805Z,23.77
2023-04-02T05:56:33.649Z,23.80
2023-04-02T05:57:44.466Z,23.83
2023-04-02T05:58:36.621Z,23.79
2023-04-02T05:59:33.673Z,23.80
2023-04-02T06:00:33.670Z,23.81
2023-04-02T06:01:33.678Z,23.85
2023-04-02T06:02:33.736Z,23.83
2023-04-02T06:03:33.717Z,23.81
2023-04-02T06:04:33.635Z,23.84
2023-04-02T06:05:33.902Z,23.84
2023-04-02T06:06:33.616Z,23.84
2023-04-02T06:07:33.616Z,23.84
2023-04-02T06:08:33.623Z,23.85
2023-04-02T06:09:33.603Z,23.84
2023-04-02T06:10:33.597Z,23.84
2023-04-02T06:11:33.587Z,23.87
2023-04-02T06:12:33.582Z,23.84
2023-04-02T06:13:33.580Z,23.85
2023-04-02T06:14:33.559Z,23.85
2023-04-02T06:15:33.674Z,23.81
2023-04-02T06:16:33.603Z,23.85
2023-04-02T06:17:33.584Z,23.85
2023-04-02T06:18:33.552Z,23.87
2023-04-02T06:19:33.528Z,23.85
2023-04-02T06:20:33.525Z,23.87
2023-04-02T06:21:33.525Z,23.88
2023-04-02T06:22:33.514Z,23.84
2023-04-02T06:23:33.523Z,23.84
2023-04-02T06:24:33.499Z,23.84
2023-04-02T06:25:33.781Z,23.85
2023-04-02T06:26:33.571Z,23.84
2023-04-02T06:27:33.793Z,23.85
2023-04-02T06:28:33.476Z,23.87
2023-04-02T06:29:36.278Z,23.84
2023-04-02T06:30:33.526Z,23.85
2023-04-02T06:31:34.288Z,23.87
2023-04-02T06:32:33.472Z,23.84
2023-04-02T06:33:33.447Z,23.81
2023-04-02T06:34:33.459Z,23.84
2023-04-02T06:35:33.688Z,23.84
2023-04-02T06:36:33.416Z,23.85
2023-04-02T06:37:33.418Z,23.85
2023-04-02T06:38:33.797Z,23.85
2023-04-02T06:39:33.403Z,23.85
2023-04-02T06:40:33.408Z,23.85
2023-04-02T06:41:33.382Z,23.84
2023-04-02T06:42:33.799Z,23.90
2023-04-02T06:43:33.545Z,23.93
2023-04-02T06:44:33.378Z,23.93
2023-04-02T06:45:33.544Z,23.96
2023-04-02T06:46:34.426Z,24.01
2023-04-02T06:47:33.370Z,24.07
2023-04-02T06:48:33.346Z,24.09
2023-04-02T06:49:33.330Z,24.14
2023-04-02T06:50:33.321Z,24.18
2023-04-02T06:51:33.320Z,24.22
2023-04-02T06:52:34.970Z,24.25
2023-04-02T06:53:33.305Z,24.29
2023-04-02T06:54:33.303Z,24.33
2023-04-02T06:55:33.660Z,24.38
2023-04-02T06:56:33.281Z,24.42
2023-04-02T06:57:33.278Z,24.46
2023-04-02T06:58:33.264Z,24.50
2023-04-02T06:59:33.263Z,24.53
2023-04-02T07:00:33.256Z,24.57
2023-04-02T07:01:33.253Z,24.62
2023-04-02T07:02:33.309Z,24.66
2023-04-02T07:03:33.229Z,24.71
2023-04-02T07:04:33.316Z,24.76
2023-04-02T07:05:33.405Z,24.78
2023-04-02T07:06:33.205Z,24.83
2023-04-02T07:07:33.196Z,24.88
2023-04-02T07:08:33.193Z,24.90
2023-04-02T07:09:33.203Z,24.92
2023-04-02T07:10:33.187Z,24.97
2023-04-02T07:11:33.188Z,24.99
2023-04-02T07:12:33.226Z,25.04
2023-04-02T07:13:33.236Z,25.07
2023-04-02T07:14:33.256Z,25.12
2023-04-02T07:15:33.438Z,25.17
2023-04-02T07:16:33.376Z,25.22
2023-04-02T07:17:33.340Z,25.26
2023-04-02T07:18:33.313Z,25.30
2023-04-02T07:19:33.319Z,25.35
2023-04-02T07:20:33.349Z,25.39
2023-04-02T07:21:33.313Z,25.44
2023-04-02T07:22:33.314Z,25.49
2023-04-02T07:23:33.382Z,25.50
2023-04-02T07:24:33.381Z,25.56
2023-04-02T07:25:33.564Z,25.60
2023-04-02T07:26:33.490Z,25.64
2023-04-02T07:27:33.550Z,25.69
2023-04-02T07:28:33.621Z,25.71
2023-04-02T07:29:33.682Z,25.77
2023-04-02T07:30:33.753Z,25.80
2023-04-02T07:31:33.818Z,25.83
2023-04-02T07:32:33.857Z,25.89
2023-04-02T07:33:33.884Z,25.92
2023-04-02T07:34:33.924Z,25.95
2023-04-02T07:35:34.399Z,25.99
2023-04-02T07:36:34.004Z,26.02
2023-04-02T07:37:34.047Z,26.05
2023-04-02T07:38:34.072Z,26.13
2023-04-02T07:39:36.206Z,26.18
2023-04-02T07:40:34.084Z,26.23
2023-04-02T07:41:34.086Z,26.29
2023-04-02T07:42:34.087Z,26.33
2023-04-02T07:43:34.068Z,26.43
2023-04-02T07:44:34.060Z,26.48
2023-04-02T07:45:34.370Z,26.56
2023-04-02T07:46:34.054Z,26.64
2023-04-02T07:47:34.054Z,26.74
2023-04-02T07:48:34.029Z,26.87
2023-04-02T07:49:34.049Z,26.98
2023-04-02T07:50:34.031Z,27.12
2023-04-02T07:51:34.806Z,27.03
2023-04-02T07:52:34.007Z,27.12
2023-04-02T07:53:34.008Z,27.25
2023-04-02T07:54:33.986Z,27.23
2023-04-02T07:55:34.175Z,27.12
2023-04-02T07:56:33.974Z,27.17
2023-04-02T07:57:34.031Z,27.17
2023-04-02T07:58:33.971Z,27.25
2023-04-02T07:59:33.947Z,27.62
2023-04-02T08:00:33.939Z,27.85
2023-04-02T08:01:33.949Z,28.08
2023-04-02T08:02:34.079Z,28.26
2023-04-02T08:03:33.989Z,28.23
2023-04-02T08:04:33.920Z,28.20
2023-04-02T08:05:34.074Z,28.34
2023-04-02T08:06:33.915Z,28.70
2023-04-02T08:07:33.895Z,28.96
2023-04-02T08:08:33.884Z,29.16
2023-04-02T08:09:33.878Z,29.06
2023-04-02T08:10:33.870Z,29.07
2023-04-02T08:11:33.865Z,29.17
2023-04-02T08:12:33.879Z,28.92
2023-04-02T08:13:33.866Z,28.70
2023-04-02T08:14:33.848Z,28.48
2023-04-02T08:15:34.032Z,28.32
2023-04-02T08:16:33.879Z,28.19
2023-04-02T08:17:33.867Z,28.08
2023-04-02T08:18:33.817Z,27.99
2023-04-02T08:19:41.389Z,27.89
2023-04-02T08:20:34.808Z,27.83
2023-04-02T08:21:33.801Z,27.74
2023-04-02T08:22:33.800Z,27.68
2023-04-02T08:23:33.780Z,27.62
2023-04-02T08:24:33.781Z,27.57
2023-04-02T08:25:34.016Z,27.53
2023-04-02T08:26:33.778Z,27.50
2023-04-02T08:27:33.766Z,27.41
2023-04-02T08:28:33.780Z,27.40
2023-04-02T08:29:33.751Z,27.37
2023-04-02T08:30:33.857Z,27.34
2023-04-02T08:31:33.812Z,27.32
2023-04-02T08:32:33.887Z,27.32
2023-04-02T08:33:33.846Z,27.26
2023-04-02T08:34:33.851Z,27.22
2023-04-02T08:35:34.253Z,27.22
2023-04-02T08:36:33.835Z,27.17
2023-04-02T08:37:33.913Z,27.17
2023-04-02T08:38:33.847Z,27.12
2023-04-02T08:39:33.824Z,27.13
2023-04-02T08:40:33.893Z,27.08
2023-04-02T08:41:33.908Z,27.05
2023-04-02T08:42:33.927Z,27.02
2023-04-02T08:43:33.927Z,27.03
2023-04-02T08:44:33.929Z,27.01
2023-04-02T08:45:33.916Z,26.98
2023-04-02T08:46:34.045Z,26.97
2023-04-02T08:47:34.015Z,26.92
2023-04-02T08:48:34.029Z,26.97
2023-04-02T08:49:34.095Z,26.94
2023-04-02T08:50:34.046Z,26.99
2023-04-02T08:51:34.044Z,27.02
2023-04-02T08:52:34.080Z,27.01
2023-04-02T08:53:34.114Z,27.03
2023-04-02T08:54:34.881Z,26.99
2023-04-02T08:55:34.305Z,27.02
2023-04-02T08:56:34.239Z,27.03
2023-04-02T08:57:34.284Z,27.01
2023-04-02T08:58:34.243Z,27.01
2023-04-02T08:59:34.276Z,27.02
2023-04-02T09:00:34.270Z,27.01
2023-04-02T09:01:34.301Z,27.01
2023-04-02T09:02:34.299Z,27.03
2023-04-02T09:03:34.304Z,27.02
2023-04-02T09:04:34.328Z,27.02
2023-04-02T09:05:34.628Z,27.01
2023-04-02T09:06:34.323Z,26.95
2023-04-02T09:07:34.326Z,26.98
2023-04-02T09:08:34.335Z,27.10
2023-04-02T09:09:34.356Z,27.25
2023-04-02T09:10:34.404Z,27.26
2023-04-02T09:11:34.458Z,27.29
2023-04-02T09:12:34.510Z,27.29
2023-04-02T09:13:34.850Z,27.33
2023-04-02T09:14:35.372Z,27.32
2023-04-02T09:15:34.932Z,27.33
2023-04-02T09:16:34.725Z,27.30
2023-04-02T09:17:42.792Z,27.32
2023-04-02T09:18:35.784Z,27.32
2023-04-02T09:19:34.771Z,27.22
2023-04-02T09:20:34.740Z,27.23
2023-04-02T09:21:34.739Z,27.23
2023-04-02T09:22:34.727Z,27.23
2023-04-02T09:23:35.351Z,27.26
2023-04-02T09:24:34.861Z,27.25
2023-04-02T09:25:34.989Z,27.25
2023-04-02T09:26:34.700Z,27.30
2023-04-02T09:27:34.714Z,27.41
2023-04-02T09:28:34.769Z,27.50
2023-04-02T09:29:35.362Z,27.54
2023-04-02T09:30:34.879Z,27.61
2023-04-02T09:31:35.064Z,27.67
2023-04-02T09:32:35.005Z,27.71
2023-04-02T09:33:35.039Z,27.75
2023-04-02T09:34:35.855Z,27.80
2023-04-02T09:35:35.118Z,27.87
2023-04-02T09:36:35.190Z,27.88
2023-04-02T09:37:35.197Z,27.91
2023-04-02T09:38:35.244Z,27.93
2023-04-02T09:39:35.282Z,27.98
2023-04-02T09:40:35.305Z,27.99
2023-04-02T09:41:36.910Z,28.02
2023-04-02T09:42:35.856Z,27.99
2023-04-02T09:43:35.374Z,27.91
2023-04-02T09:44:35.420Z,27.80
2023-04-02T09:45:35.615Z,27.74
2023-04-02T09:46:35.538Z,27.60
2023-04-02T09:47:37.097Z,27.51
2023-04-02T09:48:35.620Z,27.44
2023-04-02T09:49:35.683Z,27.37
2023-04-02T09:50:35.713Z,27.30
2023-04-02T09:51:35.723Z,27.23
2023-04-02T09:52:35.715Z,27.17
2023-04-02T09:53:35.728Z,27.12
2023-04-02T09:54:35.811Z,27.08
2023-04-02T09:55:35.956Z,27.03
2023-04-02T09:56:35.820Z,26.97
2023-04-02T09:57:35.891Z,26.94
2023-04-02T09:58:35.897Z,26.91
2023-04-02T09:59:35.910Z,26.85
2023-04-02T10:00:35.930Z,26.81
2023-04-02T10:01:36.135Z,26.78
2023-04-02T10:02:36.018Z,26.73
2023-04-02T10:03:35.963Z,26.73
2023-04-02T10:04:36.069Z,26.68
2023-04-02T10:06:35.983Z,26.61
2023-04-02T10:07:36.000Z,26.61
2023-04-02T10:08:35.957Z,26.57
2023-04-02T10:09:35.966Z,26.57
2023-04-02T10:10:36.586Z,26.56
2023-04-02T10:11:46.209Z,26.51
2023-04-02T10:12:36.947Z,26.51
2023-04-02T10:13:35.930Z,26.48
2023-04-02T10:14:35.931Z,26.46
2023-04-02T10:15:36.216Z,26.43
2023-04-02T10:16:35.978Z,26.43
2023-04-02T10:17:35.965Z,26.40
2023-04-02T10:18:35.899Z,26.39
2023-04-02T10:19:35.891Z,26.39
2023-04-02T10:20:41.761Z,26.40
2023-04-02T10:21:36.897Z,26.37
2023-04-02T10:22:35.893Z,26.37
2023-04-02T10:23:35.865Z,26.35
2023-04-02T10:24:35.936Z,26.32
2023-04-02T10:25:36.089Z,26.35
2023-04-02T10:26:35.856Z,26.30
2023-04-02T10:27:35.843Z,26.29
2023-04-02T10:28:35.827Z,26.28
2023-04-02T10:29:35.840Z,26.29
2023-04-02T10:30:35.853Z,26.26
2023-04-02T10:31:35.839Z,26.26
2023-04-02T10:32:35.948Z,26.25
2023-04-02T10:33:35.799Z,26.22
2023-04-02T10:34:35.862Z,26.21
2023-04-02T10:35:36.096Z,26.21
2023-04-02T10:36:35.860Z,26.21
2023-04-02T10:37:35.901Z,26.19
2023-04-02T10:38:35.934Z,26.19
2023-04-02T10:39:36.001Z,26.16
2023-04-02T10:40:36.018Z,26.18
2023-04-02T10:41:36.059Z,26.16
2023-04-02T10:42:36.105Z,26.18
2023-04-02T10:43:36.144Z,26.13
2023-04-02T10:44:36.185Z,26.11
2023-04-02T10:45:36.600Z,26.13
2023-04-02T10:46:36.310Z,26.13
2023-04-02T10:47:36.476Z,26.11
2023-04-02T10:48:36.369Z,26.08
2023-04-02T10:49:36.509Z,26.09
2023-04-02T10:50:36.529Z,26.08
2023-04-02T10:51:36.524Z,26.08
2023-04-02T10:52:36.644Z,26.06
2023-04-02T10:53:36.615Z,26.06
2023-04-02T10:54:36.659Z,26.05
2023-04-02T10:55:37.012Z,26.05
2023-04-02T10:56:47.861Z,26.05
2023-04-02T10:57:37.851Z,26.04
2023-04-02T10:58:36.783Z,26.04
2023-04-02T10:59:36.728Z,26.01
2023-04-02T11:00:36.732Z,25.99
2023-04-02T11:01:36.770Z,26.02
2023-04-02T11:02:36.882Z,25.99
2023-04-02T11:03:36.821Z,26.02
2023-04-02T11:04:36.701Z,26.01
2023-04-02T11:05:37.021Z,25.99
2023-04-02T11:06:36.728Z,25.99
2023-04-02T11:07:36.791Z,25.98
2023-04-02T11:08:36.831Z,26.01
2023-04-02T11:09:36.893Z,25.99
2023-04-02T11:10:36.941Z,25.99
2023-04-02T11:11:36.996Z,25.99
2023-04-02T11:12:41.586Z,25.98
2023-04-02T11:13:37.044Z,25.99
2023-04-02T11:14:37.036Z,25.99
2023-04-02T11:15:37.288Z,25.95
2023-04-02T11:16:39.461Z,25.98
2023-04-02T11:17:38.032Z,25.98
2023-04-02T11:18:37.016Z,25.98
2023-04-02T11:19:37.005Z,25.98
2023-04-02T11:20:36.996Z,25.96
2023-04-02T11:21:42.200Z,25.99
2023-04-02T11:22:38.059Z,25.99
2023-04-02T11:23:36.992Z,25.94
2023-04-02T11:24:36.982Z,25.99
2023-04-02T11:25:37.225Z,25.98
2023-04-02T11:26:36.956Z,25.98
2023-04-02T11:27:37.032Z,25.98
2023-04-02T11:28:36.943Z,25.98
2023-04-02T11:29:36.934Z,25.95
2023-04-02T11:30:36.938Z,25.98
2023-04-02T11:31:37.062Z,25.98
2023-04-02T11:32:37.198Z,25.98
2023-04-02T11:33:39.841Z,25.99
2023-04-02T11:34:38.101Z,26.01
2023-04-02T11:35:37.323Z,25.96
2023-04-02T11:36:37.080Z,25.98
2023-04-02T11:37:37.148Z,25.99
2023-04-02T11:38:37.069Z,26.01
2023-04-02T11:39:37.060Z,26.02
2023-04-02T11:40:37.053Z,26.02
2023-04-02T11:41:37.049Z,26.02
2023-04-02T11:42:37.047Z,26.01
2023-04-02T11:43:37.108Z,26.02
2023-04-02T11:44:37.160Z,26.01
2023-04-02T11:45:46.519Z,26.02
2023-04-02T11:46:38.266Z,26.04
2023-04-02T11:47:37.223Z,25.99
2023-04-02T11:48:37.196Z,26.01
2023-04-02T11:49:37.206Z,25.98
2023-04-02T11:50:37.185Z,26.04
2023-04-02T11:51:37.164Z,25.98
2023-04-02T11:52:37.174Z,26.01
2023-04-02T11:53:37.158Z,26.01
2023-04-02T11:54:37.203Z,25.99
2023-04-02T11:55:37.366Z,25.96
2023-04-02T11:56:37.321Z,25.98
2023-04-02T11:57:37.569Z,25.96
2023-04-02T11:58:37.428Z,25.96
2023-04-02T11:59:37.469Z,25.94
2023-04-02T12:00:37.727Z,25.96
2023-04-02T12:01:37.576Z,25.95
2023-04-02T12:02:37.781Z,25.94
2023-04-02T12:03:37.688Z,25.95
2023-04-02T12:04:37.755Z,25.92
2023-04-02T12:05:38.023Z,25.91
2023-04-02T12:06:37.851Z,25.92
2023-04-02T12:07:37.923Z,25.94
2023-04-02T12:08:50.663Z,25.92
2023-04-02T12:09:39.917Z,25.91
2023-04-02T12:10:37.973Z,25.92
2023-04-02T12:11:38.040Z,25.92
2023-04-02T12:12:37.950Z,25.94
2023-04-02T12:13:37.937Z,25.92
2023-04-02T12:14:37.932Z,25.92
2023-04-02T12:15:37.943Z,25.91
2023-04-02T12:16:37.979Z,25.92
2023-04-02T12:17:38.004Z,25.92
2023-04-02T12:18:38.021Z,25.91
2023-04-02T12:19:38.919Z,25.94
2023-04-02T12:20:38.173Z,25.94
2023-04-02T12:21:38.916Z,25.94
2023-04-02T12:22:38.277Z,25.89
2023-04-02T12:23:38.338Z,25.91
2023-04-02T12:24:38.394Z,25.94
2023-04-02T12:25:38.461Z,25.94
2023-04-02T12:26:38.558Z,25.92
2023-04-02T12:27:39.455Z,25.95
2023-04-02T12:28:38.667Z,25.94
2023-04-02T12:29:38.689Z,25.96
2023-04-02T12:30:38.822Z,25.95
2023-04-02T12:31:38.808Z,25.95
2023-04-02T12:32:38.904Z,25.96
2023-04-02T12:33:39.005Z,25.96
2023-04-02T12:34:38.975Z,25.98
2023-04-02T12:35:39.061Z,26.01
2023-04-02T12:36:39.107Z,25.99
2023-04-02T12:37:39.148Z,25.99
2023-04-02T12:38:39.203Z,26.01
2023-04-02T12:39:39.258Z,26.01
2023-04-02T12:40:39.344Z,26.04
2023-04-02T12:41:39.925Z,26.01
2023-04-02T12:42:39.459Z,26.05
2023-04-02T12:43:39.483Z,26.02
2023-04-02T12:44:39.537Z,26.04
2023-04-02T12:45:39.599Z,26.05
2023-04-02T12:46:42.470Z,26.05
2023-04-02T12:47:39.738Z,26.01
2023-04-02T12:48:40.428Z,26.01
2023-04-02T12:49:39.622Z,26.02
2023-04-02T12:50:39.633Z,26.04
2023-04-02T12:51:39.621Z,26.02
2023-04-02T12:52:39.605Z,26.02
2023-04-02T12:53:39.596Z,25.99